createdAt,value
2018-05-11T00:00:03.482Z,9.65
2018-05-11T00:00:07.579Z,9.65
2018-05-11T00:00:11.797Z,9.66
2018-05-11T00:00:16.131Z,9.66
2018-05-11T00:00:20.121Z,9.66
2018-05-11T00:00:24.127Z,9.65
2018-05-11T00:00:28.441Z,9.66
2018-05-11T00:00:32.544Z,9.66
2018-05-11T00:00:36.748Z,9.65
2018-05-11T00:00:41.064Z,9.66
2018-05-11T00:00:45.378Z,9.66
2018-05-11T00:00:49.602Z,9.66
2018-05-11T00:00:53.939Z,9.65
2018-05-11T00:00:58.359Z,9.65
2018-05-11T00:01:02.477Z,9.66
2018-05-11T00:01:06.803Z,9.66
2018-05-11T00:01:11.012Z,9.66
2018-05-11T00:01:15.224Z,9.65
2018-05-11T00:01:19.440Z,9.65
2018-05-11T00:01:23.545Z,9.66
2018-05-11T00:01:27.763Z,9.66
2018-05-11T00:01:31.973Z,9.65
2018-05-11T00:01:36.083Z,9.65
2018-05-11T00:01:40.300Z,9.66
2018-05-11T00:01:44.513Z,9.66
2018-05-11T00:01:48.620Z,9.66
2018-05-11T00:01:52.835Z,9.65
2018-05-11T00:01:57.041Z,9.65
2018-05-11T00:02:01.369Z,9.65
2018-05-11T00:02:05.479Z,9.65
2018-05-11T00:02:09.809Z,9.66
2018-05-11T00:02:14.030Z,9.65
2018-05-11T00:02:18.240Z,9.65
2018-05-11T00:02:22.346Z,9.66
2018-05-11T00:02:26.568Z,9.66
2018-05-11T00:02:30.786Z,9.66
2018-05-11T00:02:35.111Z,9.66
2018-05-11T00:02:39.319Z,9.66
2018-05-11T00:02:43.425Z,9.66
2018-05-11T00:02:47.633Z,9.67
2018-05-11T00:02:51.731Z,9.67
2018-05-11T00:02:56.054Z,9.67
2018-05-11T00:03:00.459Z,9.67
2018-05-11T00:03:04.679Z,9.67
2018-05-11T00:03:09.003Z,9.67
2018-05-11T00:03:13.329Z,9.67
2018-05-11T00:03:17.652Z,9.67
2018-05-11T00:03:21.865Z,9.68
2018-05-11T00:03:25.757Z,9.68
2018-05-11T00:03:29.963Z,9.68
2018-05-11T00:03:34.277Z,9.67
2018-05-11T00:03:38.485Z,9.67
2018-05-11T00:03:42.592Z,9.68
2018-05-11T00:03:46.806Z,9.68
2018-05-11T00:03:51.078Z,9.68
2018-05-11T00:03:55.393Z,9.67
2018-05-11T00:03:59.615Z,9.68
2018-05-11T00:04:03.952Z,9.68
2018-05-11T00:04:08.176Z,9.68
2018-05-11T00:04:12.413Z,9.69
2018-05-11T00:04:16.740Z,9.69
2018-05-11T00:04:21.070Z,9.68
2018-05-11T00:04:25.281Z,9.69
2018-05-11T00:04:29.501Z,9.69
2018-05-11T00:04:33.836Z,9.7
2018-05-11T00:04:38.052Z,9.69
2018-05-11T00:04:42.262Z,9.69
2018-05-11T00:04:46.589Z,9.69
2018-05-11T00:04:50.806Z,9.69
2018-05-11T00:04:54.905Z,9.69
2018-05-11T00:04:59.279Z,9.68
2018-05-11T00:05:03.595Z,9.69
2018-05-11T00:05:07.819Z,9.7
2018-05-11T00:05:12.029Z,9.69
2018-05-11T00:05:16.342Z,9.69
2018-05-11T00:05:20.659Z,9.69
2018-05-11T00:05:24.876Z,9.69
2018-05-11T00:05:29.202Z,9.69
2018-05-11T00:05:33.420Z,9.69
2018-05-11T00:05:37.646Z,9.71
2018-05-11T00:05:41.968Z,9.7
2018-05-11T00:05:46.288Z,9.71
2018-05-11T00:05:50.498Z,9.7
2018-05-11T00:05:54.718Z,9.7
2018-05-11T00:05:59.027Z,9.71
2018-05-11T00:06:03.389Z,9.7
2018-05-11T00:06:07.493Z,9.71
2018-05-11T00:06:11.783Z,9.71
2018-05-11T00:06:16.004Z,9.71
2018-05-11T00:06:20.221Z,9.71
2018-05-11T00:06:24.431Z,9.7
2018-05-11T00:06:28.530Z,9.71
2018-05-11T00:06:32.632Z,9.7
2018-05-11T00:06:36.980Z,9.71
2018-05-11T00:06:41.085Z,9.71
2018-05-11T00:06:45.287Z,9.72
2018-05-11T00:06:49.396Z,9.71
2018-05-11T00:06:53.497Z,9.72
2018-05-11T00:06:57.705Z,9.72
2018-05-11T00:07:01.713Z,9.72
2018-05-11T00:07:05.971Z,9.72
2018-05-11T00:07:09.964Z,9.72
2018-05-11T00:07:14.189Z,9.71
2018-05-11T00:07:18.406Z,9.71
2018-05-11T00:07:22.620Z,9.72
2018-05-11T00:07:26.838Z,9.71
2018-05-11T00:07:31.160Z,9.71
2018-05-11T00:07:35.364Z,9.71
2018-05-11T00:07:39.681Z,9.71
2018-05-11T00:07:44.001Z,9.71
2018-05-11T00:07:48.210Z,9.71
2018-05-11T00:07:52.541Z,9.72
2018-05-11T00:07:56.533Z,9.71
2018-05-11T00:08:00.856Z,9.72
2018-05-11T00:08:04.749Z,9.72
2018-05-11T00:08:08.745Z,9.72
2018-05-11T00:08:12.738Z,9.72
2018-05-11T00:08:16.838Z,9.72
2018-05-11T00:08:21.060Z,9.72
2018-05-11T00:08:25.415Z,9.72
2018-05-11T00:08:29.733Z,9.72
2018-05-11T00:08:33.949Z,9.72
2018-05-11T00:08:38.160Z,9.72
2018-05-11T00:08:42.270Z,9.72
2018-05-11T00:08:46.375Z,9.71
2018-05-11T00:08:50.473Z,9.72
2018-05-11T00:08:54.682Z,9.72
2018-05-11T00:08:58.894Z,9.72
2018-05-11T00:09:03.109Z,9.72
2018-05-11T00:09:07.319Z,9.72
2018-05-11T00:09:11.439Z,9.73
2018-05-11T00:09:15.770Z,9.73
2018-05-11T00:09:20.090Z,9.73
2018-05-11T00:09:24.303Z,9.74
2018-05-11T00:09:28.298Z,9.73
2018-05-11T00:09:32.410Z,9.73
2018-05-11T00:09:36.631Z,9.72
2018-05-11T00:09:40.943Z,9.73
2018-05-11T00:09:45.048Z,9.72
2018-05-11T00:09:49.362Z,9.72
2018-05-11T00:09:53.577Z,9.73
2018-05-11T00:09:57.763Z,9.73
2018-05-11T00:10:01.978Z,9.73
2018-05-11T00:10:06.091Z,9.73
2018-05-11T00:10:10.296Z,9.73
2018-05-11T00:10:14.622Z,9.73
2018-05-11T00:10:18.953Z,9.73
2018-05-11T00:10:23.171Z,9.73
2018-05-11T00:10:27.504Z,9.73
2018-05-11T00:10:31.725Z,9.73
2018-05-11T00:10:35.942Z,9.74
2018-05-11T00:10:40.269Z,9.73
2018-05-11T00:10:44.476Z,9.73
2018-05-11T00:10:48.586Z,9.73
2018-05-11T00:10:52.806Z,9.74
2018-05-11T00:10:57.125Z,9.73
2018-05-11T00:11:01.440Z,9.74
2018-05-11T00:11:05.595Z,9.74
2018-05-11T00:11:09.699Z,9.74
2018-05-11T00:11:14.012Z,9.74
2018-05-11T00:11:18.226Z,9.74
2018-05-11T00:11:22.547Z,9.73
2018-05-11T00:11:26.873Z,9.73
2018-05-11T00:11:30.868Z,9.74
2018-05-11T00:11:34.964Z,9.73
2018-05-11T00:11:39.189Z,9.73
2018-05-11T00:11:43.505Z,9.74
2018-05-11T00:11:47.886Z,9.74
2018-05-11T00:11:52.111Z,9.74
2018-05-11T00:11:56.321Z,9.74
2018-05-11T00:12:00.552Z,9.74
2018-05-11T00:12:04.938Z,9.74
2018-05-11T00:12:09.038Z,9.74
2018-05-11T00:12:13.140Z,9.75
2018-05-11T00:12:17.238Z,9.74
2018-05-11T00:12:21.338Z,9.75
2018-05-11T00:12:25.553Z,9.75
2018-05-11T00:12:29.773Z,9.75
2018-05-11T00:12:33.980Z,9.76
2018-05-11T00:12:37.973Z,9.75
2018-05-11T00:12:42.184Z,9.75
2018-05-11T00:12:46.512Z,9.75
2018-05-11T00:12:50.840Z,9.75
2018-05-11T00:12:55.152Z,9.75
2018-05-11T00:12:59.254Z,9.75
2018-05-11T00:13:03.464Z,9.76
2018-05-11T00:13:07.564Z,9.76
2018-05-11T00:13:11.785Z,9.76
2018-05-11T00:13:15.999Z,9.76
2018-05-11T00:13:20.320Z,9.76
2018-05-11T00:13:24.528Z,9.77
2018-05-11T00:13:28.847Z,9.76
2018-05-11T00:13:33.161Z,9.77
2018-05-11T00:13:37.371Z,9.77
2018-05-11T00:13:41.477Z,9.76
2018-05-11T00:13:45.799Z,9.76
2018-05-11T00:13:50.013Z,9.77
2018-05-11T00:13:54.289Z,9.77
2018-05-11T00:13:58.604Z,9.77
2018-05-11T00:14:02.816Z,9.77
2018-05-11T00:14:06.923Z,9.77
2018-05-11T00:14:11.136Z,9.77
2018-05-11T00:14:15.463Z,9.78
2018-05-11T00:14:19.671Z,9.78
2018-05-11T00:14:23.881Z,9.78
2018-05-11T00:14:27.879Z,9.78
2018-05-11T00:14:32.199Z,9.77
2018-05-11T00:14:36.578Z,9.78
2018-05-11T00:14:40.899Z,9.78
2018-05-11T00:14:44.893Z,9.77
2018-05-11T00:14:49.115Z,9.78
2018-05-11T00:14:53.329Z,9.78
2018-05-11T00:14:57.536Z,9.78
2018-05-11T00:15:01.605Z,9.78
2018-05-11T00:15:05.976Z,9.77
2018-05-11T00:15:10.194Z,9.77
2018-05-11T00:15:14.417Z,9.77
2018-05-11T00:15:18.638Z,9.78
2018-05-11T00:15:22.741Z,9.77
2018-05-11T00:15:27.131Z,9.78
2018-05-11T00:15:31.449Z,9.78
2018-05-11T00:15:35.668Z,9.77
2018-05-11T00:15:39.977Z,9.78
2018-05-11T00:15:44.311Z,9.78
2018-05-11T00:15:48.545Z,9.78
2018-05-11T00:15:52.774Z,9.78
2018-05-11T00:15:57.089Z,9.78
2018-05-11T00:16:01.199Z,9.77
2018-05-11T00:16:05.415Z,9.77
2018-05-11T00:16:09.628Z,9.77
2018-05-11T00:16:13.955Z,9.77
2018-05-11T00:16:18.058Z,9.77
2018-05-11T00:16:22.266Z,9.76
2018-05-11T00:16:26.372Z,9.77
2018-05-11T00:16:30.469Z,9.77
2018-05-11T00:16:34.575Z,9.76
2018-05-11T00:16:38.916Z,9.76
2018-05-11T00:16:43.024Z,9.77
2018-05-11T00:16:47.317Z,9.76
2018-05-11T00:16:51.638Z,9.75
2018-05-11T00:16:55.848Z,9.76
2018-05-11T00:17:00.056Z,9.76
2018-05-11T00:17:04.063Z,9.76
2018-05-11T00:17:08.058Z,9.76
2018-05-11T00:17:12.377Z,9.75
2018-05-11T00:17:16.584Z,9.76
2018-05-11T00:17:20.792Z,9.76
2018-05-11T00:17:25.005Z,9.77
2018-05-11T00:17:29.220Z,9.77
2018-05-11T00:17:33.435Z,9.77
2018-05-11T00:17:37.756Z,9.77
2018-05-11T00:17:41.964Z,9.78
2018-05-11T00:17:45.956Z,9.78
2018-05-11T00:17:50.275Z,9.77
2018-05-11T00:17:54.600Z,9.77
2018-05-11T00:17:58.805Z,9.76
2018-05-11T00:18:03.125Z,9.77
2018-05-11T00:18:07.240Z,9.76
2018-05-11T00:18:11.554Z,9.76
2018-05-11T00:18:15.543Z,9.77
2018-05-11T00:18:19.769Z,9.77
2018-05-11T00:18:23.980Z,9.78
2018-05-11T00:18:28.313Z,9.78
2018-05-11T00:18:32.410Z,9.77
2018-05-11T00:18:36.511Z,9.78
2018-05-11T00:18:40.834Z,9.78
2018-05-11T00:18:45.057Z,9.78
2018-05-11T00:18:49.264Z,9.78
2018-05-11T00:18:53.553Z,9.77
2018-05-11T00:18:57.766Z,9.76
2018-05-11T00:19:01.878Z,9.78
2018-05-11T00:19:05.984Z,9.77
2018-05-11T00:19:10.101Z,9.76
2018-05-11T00:19:14.417Z,9.76
2018-05-11T00:19:18.636Z,9.77
2018-05-11T00:19:22.848Z,9.76
2018-05-11T00:19:27.071Z,9.76
2018-05-11T00:19:31.276Z,9.76
2018-05-11T00:19:35.482Z,9.76
2018-05-11T00:19:39.692Z,9.77
2018-05-11T00:19:43.908Z,9.76
2018-05-11T00:19:48.025Z,9.76
2018-05-11T00:19:52.349Z,9.77
2018-05-11T00:19:56.669Z,9.76
2018-05-11T00:20:00.887Z,9.76
2018-05-11T00:20:05.104Z,9.76
2018-05-11T00:20:09.096Z,9.76
2018-05-11T00:20:13.196Z,9.77
2018-05-11T00:20:17.295Z,9.76
2018-05-11T00:20:21.623Z,9.76
2018-05-11T00:20:25.838Z,9.76
2018-05-11T00:20:30.053Z,9.76
2018-05-11T00:20:34.263Z,9.76
2018-05-11T00:20:38.361Z,9.76
2018-05-11T00:20:42.569Z,9.76
2018-05-11T00:20:46.785Z,9.76
2018-05-11T00:20:51.190Z,9.76
2018-05-11T00:20:55.513Z,9.76
2018-05-11T00:20:59.827Z,9.76
2018-05-11T00:21:04.049Z,9.76
2018-05-11T00:21:08.270Z,9.77
2018-05-11T00:21:12.495Z,9.76
2018-05-11T00:21:16.816Z,9.76
2018-05-11T00:21:21.030Z,9.76
2018-05-11T00:21:25.244Z,9.77
2018-05-11T00:21:29.570Z,9.77
2018-05-11T00:21:33.776Z,9.77
2018-05-11T00:21:37.779Z,9.77
2018-05-11T00:21:41.882Z,9.77
2018-05-11T00:21:46.198Z,9.77
2018-05-11T00:21:50.300Z,9.77
2018-05-11T00:21:54.300Z,9.78
2018-05-11T00:21:58.614Z,9.77
2018-05-11T00:22:02.718Z,9.78
2018-05-11T00:22:06.603Z,9.78
2018-05-11T00:22:10.812Z,9.78
2018-05-11T00:22:14.890Z,9.77
2018-05-11T00:22:19.113Z,9.79
2018-05-11T00:22:23.439Z,9.78
2018-05-11T00:22:27.760Z,9.78
2018-05-11T00:22:31.973Z,9.78
2018-05-11T00:22:36.177Z,9.78
2018-05-11T00:22:40.384Z,9.77
2018-05-11T00:22:44.591Z,9.78
2018-05-11T00:22:48.914Z,9.78
2018-05-11T00:22:53.018Z,9.78
2018-05-11T00:22:57.347Z,9.77
2018-05-11T00:23:01.446Z,9.77
2018-05-11T00:23:05.658Z,9.78
2018-05-11T00:23:09.649Z,9.78
2018-05-11T00:23:13.854Z,9.78
2018-05-11T00:23:18.081Z,9.77
2018-05-11T00:23:22.647Z,9.78
2018-05-11T00:23:27.287Z,9.78
2018-05-11T00:23:32.136Z,9.78
2018-05-11T00:23:37.100Z,9.78
2018-05-11T00:23:41.429Z,9.79
2018-05-11T00:23:45.533Z,9.79
2018-05-11T00:23:49.823Z,9.78
2018-05-11T00:23:54.144Z,9.79
2018-05-11T00:23:58.139Z,9.79
2018-05-11T00:24:02.243Z,9.78
2018-05-11T00:24:06.424Z,9.79
2018-05-11T00:24:42.522Z,9.79
2018-05-11T00:24:46.739Z,9.79
2018-05-11T00:24:50.947Z,9.79
2018-05-11T00:24:55.157Z,9.79
2018-05-11T00:24:59.476Z,9.8
2018-05-11T00:25:03.688Z,9.79
2018-05-11T00:25:07.686Z,9.79
2018-05-11T00:25:11.784Z,9.79
2018-05-11T00:25:16.103Z,9.8
2018-05-11T00:25:20.313Z,9.79
2018-05-11T00:25:24.625Z,9.79
2018-05-11T00:25:28.840Z,9.8
2018-05-11T00:25:33.050Z,9.8
2018-05-11T00:25:37.397Z,9.79
2018-05-11T00:25:41.720Z,9.81
2018-05-11T00:25:45.938Z,9.8
2018-05-11T00:25:50.254Z,9.81
2018-05-11T00:25:54.357Z,9.8
2018-05-11T00:25:58.565Z,9.81
2018-05-11T00:26:02.793Z,9.81
2018-05-11T00:26:07.114Z,9.8
2018-05-11T00:26:11.437Z,9.8
2018-05-11T00:26:15.650Z,9.81
2018-05-11T00:26:19.971Z,9.81
2018-05-11T00:26:24.287Z,9.8
2018-05-11T00:26:28.500Z,9.8
2018-05-11T00:26:32.811Z,9.8
2018-05-11T00:26:36.920Z,9.8
2018-05-11T00:26:41.023Z,9.79
2018-05-11T00:26:45.230Z,9.8
2018-05-11T00:26:49.454Z,9.8
2018-05-11T00:26:53.664Z,9.81
2018-05-11T00:26:57.762Z,9.8
2018-05-11T00:27:01.864Z,9.8
2018-05-11T00:27:05.973Z,9.81
2018-05-11T00:27:10.196Z,9.8
2018-05-11T00:27:14.507Z,9.79
2018-05-11T00:27:18.504Z,9.8
2018-05-11T00:27:22.823Z,9.8
2018-05-11T00:27:27.032Z,9.8
2018-05-11T00:27:31.369Z,9.81
2018-05-11T00:27:35.582Z,9.81
2018-05-11T00:27:39.795Z,9.81
2018-05-11T00:27:44.011Z,9.8
2018-05-11T00:27:48.224Z,9.8
2018-05-11T00:27:52.545Z,9.79
2018-05-11T00:27:56.536Z,9.81
2018-05-11T00:28:00.863Z,9.8
2018-05-11T00:28:05.078Z,9.8
2018-05-11T00:28:09.286Z,9.8
2018-05-11T00:28:13.392Z,9.79
2018-05-11T00:28:17.713Z,9.79
2018-05-11T00:28:21.921Z,9.8
2018-05-11T00:28:26.262Z,9.79
2018-05-11T00:28:30.473Z,9.8
2018-05-11T00:28:34.792Z,9.8
2018-05-11T00:28:39.109Z,9.8
2018-05-11T00:28:43.430Z,9.8
2018-05-11T00:28:47.647Z,9.79
2018-05-11T00:28:51.880Z,9.8
2018-05-11T00:28:56.091Z,9.81
2018-05-11T00:29:00.084Z,9.81
2018-05-11T00:29:04.300Z,9.8
2018-05-11T00:29:08.423Z,9.8
2018-05-11T00:29:12.639Z,9.8
2018-05-11T00:29:16.965Z,9.8
2018-05-11T00:29:21.292Z,9.8
2018-05-11T00:29:25.513Z,9.8
2018-05-11T00:29:29.726Z,9.8
2018-05-11T00:29:33.938Z,9.8
2018-05-11T00:29:38.255Z,9.8
2018-05-11T00:29:42.466Z,9.8
2018-05-11T00:29:46.791Z,9.8
2018-05-11T00:29:50.999Z,9.8
2018-05-11T00:29:55.103Z,9.79
2018-05-11T00:29:59.207Z,9.8
2018-05-11T00:30:03.430Z,9.8
2018-05-11T00:30:07.548Z,9.8
2018-05-11T00:30:11.655Z,9.81
2018-05-11T00:30:15.984Z,9.8
2018-05-11T00:30:20.323Z,9.81
2018-05-11T00:30:24.537Z,9.8
2018-05-11T00:30:28.852Z,9.8
2018-05-11T00:30:33.077Z,9.81
2018-05-11T00:30:37.283Z,9.81
2018-05-11T00:30:41.494Z,9.81
2018-05-11T00:30:45.821Z,9.81
2018-05-11T00:30:49.918Z,9.81
2018-05-11T00:30:54.231Z,9.8
2018-05-11T00:30:58.445Z,9.8
2018-05-11T00:31:02.808Z,9.81
2018-05-11T00:31:07.028Z,9.81
2018-05-11T00:31:11.244Z,9.82
2018-05-11T00:31:15.566Z,9.81
2018-05-11T00:31:19.901Z,9.8
2018-05-11T00:31:24.115Z,9.82
2018-05-11T00:31:28.440Z,9.82
2018-05-11T00:31:32.760Z,9.81
2018-05-11T00:31:36.965Z,9.8
2018-05-11T00:31:41.280Z,9.81
2018-05-11T00:31:45.611Z,9.81
2018-05-11T00:31:49.828Z,9.82
2018-05-11T00:31:54.035Z,9.81
2018-05-11T00:31:58.356Z,9.82
2018-05-11T00:32:02.351Z,9.81
2018-05-11T00:32:06.454Z,9.81
2018-05-11T00:32:10.764Z,9.82
2018-05-11T00:32:15.081Z,9.81
2018-05-11T00:32:19.261Z,9.82
2018-05-11T00:32:23.573Z,9.82
2018-05-11T00:32:27.683Z,9.82
2018-05-11T00:32:31.905Z,9.82
2018-05-11T00:32:36.111Z,9.82
2018-05-11T00:32:40.425Z,9.83
2018-05-11T00:32:44.801Z,9.82
2018-05-11T00:32:49.130Z,9.82
2018-05-11T00:32:53.454Z,9.83
2018-05-11T00:32:57.766Z,9.82
2018-05-11T00:33:01.978Z,9.82
2018-05-11T00:33:06.083Z,9.82
2018-05-11T00:33:10.404Z,9.82
2018-05-11T00:33:14.612Z,9.82
2018-05-11T00:33:18.721Z,9.82
2018-05-11T00:33:23.045Z,9.83
2018-05-11T00:33:27.265Z,9.82
2018-05-11T00:33:31.584Z,9.82
2018-05-11T00:33:35.899Z,9.83
2018-05-11T00:33:40.120Z,9.83
2018-05-11T00:33:44.326Z,9.83
2018-05-11T00:33:48.428Z,9.82
2018-05-11T00:33:52.750Z,9.83
2018-05-11T00:33:56.960Z,9.83
2018-05-11T00:34:01.187Z,9.83
2018-05-11T00:34:05.291Z,9.83
2018-05-11T00:34:09.512Z,9.83
2018-05-11T00:34:13.802Z,9.82
2018-05-11T00:34:18.023Z,9.84
2018-05-11T00:34:22.238Z,9.83
2018-05-11T00:34:26.449Z,9.83
2018-05-11T00:34:30.503Z,9.83
2018-05-11T00:34:34.820Z,9.83
2018-05-11T00:34:39.033Z,9.83
2018-05-11T00:34:43.304Z,9.83
2018-05-11T00:34:47.519Z,9.83
2018-05-11T00:34:51.837Z,9.83
2018-05-11T00:34:56.158Z,9.83
2018-05-11T00:35:00.471Z,9.83
2018-05-11T00:35:04.687Z,9.83
2018-05-11T00:35:08.898Z,9.83
2018-05-11T00:35:13.114Z,9.83
2018-05-11T00:35:17.429Z,9.83
2018-05-11T00:35:21.749Z,9.83
2018-05-11T00:35:26.069Z,9.83
2018-05-11T00:35:30.166Z,9.83
2018-05-11T00:35:34.398Z,9.83
2018-05-11T00:35:38.615Z,9.83
2018-05-11T00:35:42.713Z,9.83
2018-05-11T00:35:47.034Z,9.83
2018-05-11T00:35:51.244Z,9.83
2018-05-11T00:35:55.572Z,9.83
2018-05-11T00:35:59.889Z,9.83
2018-05-11T00:36:04.093Z,9.83
2018-05-11T00:36:08.312Z,9.83
2018-05-11T00:36:12.639Z,9.82
2018-05-11T00:36:16.863Z,9.82
2018-05-11T00:36:21.068Z,9.83
2018-05-11T00:36:25.389Z,9.83
2018-05-11T00:36:29.698Z,9.83
2018-05-11T00:36:33.798Z,9.83
2018-05-11T00:36:38.005Z,9.83
2018-05-11T00:36:42.328Z,9.83
2018-05-11T00:36:46.539Z,9.83
2018-05-11T00:36:50.637Z,9.82
2018-05-11T00:36:54.850Z,9.83
2018-05-11T00:36:59.166Z,9.83
2018-05-11T00:37:03.416Z,9.83
2018-05-11T00:37:07.519Z,9.83
2018-05-11T00:37:11.730Z,9.84
2018-05-11T00:37:16.125Z,9.83
2018-05-11T00:37:20.230Z,9.83
2018-05-11T00:37:24.337Z,9.84
2018-05-11T00:37:28.663Z,9.83
2018-05-11T00:37:32.980Z,9.84
2018-05-11T00:37:37.300Z,9.84
2018-05-11T00:37:41.524Z,9.84
2018-05-11T00:37:45.728Z,9.84
2018-05-11T00:37:50.049Z,9.85
2018-05-11T00:37:54.262Z,9.85
2018-05-11T00:37:58.363Z,9.84
2018-05-11T00:38:02.585Z,9.85
2018-05-11T00:38:06.482Z,9.85
2018-05-11T00:38:10.891Z,9.85
2018-05-11T00:38:15.103Z,9.86
2018-05-11T00:38:19.440Z,9.85
2018-05-11T00:38:23.656Z,9.84
2018-05-11T00:38:27.861Z,9.85
2018-05-11T00:38:32.086Z,9.84
2018-05-11T00:38:36.309Z,9.84
2018-05-11T00:38:40.630Z,9.85
2018-05-11T00:38:44.837Z,9.85
2018-05-11T00:38:49.048Z,9.84
2018-05-11T00:38:53.253Z,9.84
2018-05-11T00:38:57.460Z,9.84
2018-05-11T00:39:01.672Z,9.85
2018-05-11T00:39:05.889Z,9.85
2018-05-11T00:39:09.886Z,9.84
2018-05-11T00:39:14.096Z,9.85
2018-05-11T00:39:18.322Z,9.85
2018-05-11T00:39:22.645Z,9.85
2018-05-11T00:39:26.788Z,9.85
2018-05-11T00:39:31.004Z,9.85
2018-05-11T00:39:35.320Z,9.85
2018-05-11T00:39:39.633Z,9.85
2018-05-11T00:39:43.735Z,9.85
2018-05-11T00:39:48.051Z,9.85
2018-05-11T00:39:52.372Z,9.85
2018-05-11T00:39:56.581Z,9.85
2018-05-11T00:40:00.787Z,9.86
2018-05-11T00:40:04.871Z,9.86
2018-05-11T00:40:09.093Z,9.86
2018-05-11T00:40:13.325Z,9.86
2018-05-11T00:40:17.649Z,9.86
2018-05-11T00:40:21.756Z,9.86
2018-05-11T00:40:25.968Z,9.85
2018-05-11T00:40:30.175Z,9.84
2018-05-11T00:40:34.383Z,9.85
2018-05-11T00:40:38.494Z,9.86
2018-05-11T00:40:42.808Z,9.86
2018-05-11T00:40:46.807Z,9.86
2018-05-11T00:40:50.910Z,9.86
2018-05-11T00:40:55.034Z,9.85
2018-05-11T00:40:59.397Z,9.86
2018-05-11T00:41:03.713Z,9.86
2018-05-11T00:41:07.814Z,9.86
2018-05-11T00:41:12.027Z,9.86
2018-05-11T00:41:16.349Z,9.86
2018-05-11T00:41:20.450Z,9.87
2018-05-11T00:41:24.553Z,9.86
2018-05-11T00:41:28.651Z,9.87
2018-05-11T00:41:32.971Z,9.87
2018-05-11T00:41:37.183Z,9.87
2018-05-11T00:41:41.503Z,9.86
2018-05-11T00:41:45.717Z,9.87
2018-05-11T00:41:49.930Z,9.88
2018-05-11T00:41:54.140Z,9.88
2018-05-11T00:41:58.360Z,9.86
2018-05-11T00:42:02.577Z,9.88
2018-05-11T00:42:06.675Z,9.9
2018-05-11T00:42:10.888Z,9.89
2018-05-11T00:42:15.098Z,9.9
2018-05-11T00:42:19.196Z,9.89
2018-05-11T00:42:23.300Z,9.89
2018-05-11T00:42:27.304Z,9.9
2018-05-11T00:42:31.693Z,9.9
2018-05-11T00:42:35.901Z,9.9
2018-05-11T00:42:40.245Z,9.91
2018-05-11T00:42:44.558Z,9.91
2018-05-11T00:42:48.869Z,9.9
2018-05-11T00:42:53.184Z,9.91
2018-05-11T00:42:57.401Z,9.92
2018-05-11T00:43:01.721Z,9.92
2018-05-11T00:43:05.829Z,9.92
2018-05-11T00:43:10.037Z,9.92
2018-05-11T00:43:14.263Z,9.92
2018-05-11T00:43:18.585Z,9.93
2018-05-11T00:43:22.790Z,9.93
2018-05-11T00:43:27.107Z,9.93
2018-05-11T00:43:31.100Z,9.92
2018-05-11T00:43:35.204Z,9.93
2018-05-11T00:43:39.519Z,9.93
2018-05-11T00:43:43.727Z,9.93
2018-05-11T00:43:48.045Z,9.93
2018-05-11T00:43:52.359Z,9.92
2018-05-11T00:43:56.462Z,9.93
2018-05-11T00:44:00.562Z,9.93
2018-05-11T00:44:04.820Z,9.93
2018-05-11T00:44:08.925Z,9.93
2018-05-11T00:44:13.128Z,9.93
2018-05-11T00:44:17.336Z,9.93
2018-05-11T00:44:21.553Z,9.94
2018-05-11T00:44:25.658Z,9.93
2018-05-11T00:44:29.876Z,9.94
2018-05-11T00:44:34.091Z,9.92
2018-05-11T00:44:38.298Z,9.93
2018-05-11T00:44:42.397Z,9.93
2018-05-11T00:44:46.611Z,9.93
2018-05-11T00:44:50.828Z,9.93
2018-05-11T00:44:55.149Z,9.93
2018-05-11T00:44:59.464Z,9.93
2018-05-11T00:45:03.805Z,9.93
2018-05-11T00:45:07.915Z,9.93
2018-05-11T00:45:12.121Z,9.94
2018-05-11T00:45:16.223Z,9.93
2018-05-11T00:45:20.435Z,9.93
2018-05-11T00:45:24.647Z,9.94
2018-05-11T00:45:28.863Z,9.93
2018-05-11T00:45:33.080Z,9.94
2018-05-11T00:45:37.408Z,9.93
2018-05-11T00:45:41.629Z,9.93
2018-05-11T00:45:45.949Z,9.94
2018-05-11T00:45:50.155Z,9.94
2018-05-11T00:45:54.367Z,9.94
2018-05-11T00:45:58.579Z,9.94
2018-05-11T00:46:02.780Z,9.94
2018-05-11T00:46:07.099Z,9.94
2018-05-11T00:46:11.426Z,9.94
2018-05-11T00:46:15.649Z,9.94
2018-05-11T00:46:19.865Z,9.94
2018-05-11T00:46:23.974Z,9.94
2018-05-11T00:46:28.200Z,9.94
2018-05-11T00:46:32.411Z,9.94
2018-05-11T00:46:36.734Z,9.94
2018-05-11T00:46:40.944Z,9.94
2018-05-11T00:46:45.156Z,9.94
2018-05-11T00:46:49.360Z,9.95
2018-05-11T00:46:53.561Z,9.95
2018-05-11T00:46:57.766Z,9.94
2018-05-11T00:47:02.073Z,9.95
2018-05-11T00:47:06.050Z,9.95
2018-05-11T00:47:10.273Z,9.95
2018-05-11T00:47:14.591Z,9.95
2018-05-11T00:47:18.689Z,9.95
2018-05-11T00:47:23.005Z,9.96
2018-05-11T00:47:27.323Z,9.95
2018-05-11T00:47:31.438Z,9.95
2018-05-11T00:47:35.648Z,9.96
2018-05-11T00:47:39.871Z,9.96
2018-05-11T00:47:44.092Z,9.96
2018-05-11T00:47:48.301Z,9.96
2018-05-11T00:47:52.616Z,9.96
2018-05-11T00:47:56.933Z,9.95
2018-05-11T00:48:01.144Z,9.96
2018-05-11T00:48:05.242Z,9.96
2018-05-11T00:48:09.454Z,9.96
2018-05-11T00:48:13.774Z,9.96
2018-05-11T00:48:17.882Z,9.96
2018-05-11T00:48:21.886Z,9.96
2018-05-11T00:48:26.205Z,9.96
2018-05-11T00:48:30.417Z,9.96
2018-05-11T00:48:34.624Z,9.96
2018-05-11T00:48:38.955Z,9.97
2018-05-11T00:48:43.164Z,9.96
2018-05-11T00:48:47.487Z,9.97
2018-05-11T00:48:51.699Z,9.97
2018-05-11T00:48:56.022Z,9.97
2018-05-11T00:49:00.337Z,9.97
2018-05-11T00:49:04.806Z,9.97
2018-05-11T00:49:09.127Z,9.98
2018-05-11T00:49:13.341Z,9.98
2018-05-11T00:49:17.332Z,9.98
2018-05-11T00:49:21.542Z,9.98
2018-05-11T00:49:25.642Z,9.97
2018-05-11T00:49:29.852Z,9.98
2018-05-11T00:49:34.058Z,9.98
2018-05-11T00:49:38.266Z,9.98
2018-05-11T00:49:42.373Z,9.99
2018-05-11T00:49:46.483Z,9.99
2018-05-11T00:49:50.800Z,9.99
2018-05-11T00:49:55.124Z,9.99
2018-05-11T00:49:59.225Z,10
2018-05-11T00:50:03.507Z,9.99
2018-05-11T00:50:07.835Z,9.99
2018-05-11T00:50:12.050Z,10
2018-05-11T00:50:16.162Z,10
2018-05-11T00:50:20.367Z,10
2018-05-11T00:50:24.685Z,10
2018-05-11T00:50:28.901Z,10.01
2018-05-11T00:50:33.114Z,10
2018-05-11T00:50:37.429Z,10
2018-05-11T00:50:41.638Z,10
2018-05-11T00:50:45.863Z,10.01
2018-05-11T00:50:50.179Z,10
2018-05-11T00:50:54.279Z,10.01
2018-05-11T00:50:58.763Z,10
2018-05-11T00:51:03.025Z,10.01
2018-05-11T00:51:07.634Z,10
2018-05-11T00:51:12.616Z,10.01
2018-05-11T00:51:16.952Z,10.01
2018-05-11T00:51:20.945Z,10.01
2018-05-11T00:51:25.157Z,10.01
2018-05-11T00:51:29.473Z,10
2018-05-11T00:51:33.676Z,10.01
2018-05-11T00:51:37.787Z,10.01
2018-05-11T00:51:41.681Z,10.01
2018-05-11T00:51:45.905Z,10.01
2018-05-11T00:51:50.011Z,10.01
2018-05-11T00:51:54.331Z,10.02
2018-05-11T00:51:58.663Z,10.01
2018-05-11T00:52:02.991Z,10.02
2018-05-11T00:52:06.991Z,10.02
2018-05-11T00:52:11.310Z,10.02
2018-05-11T00:52:15.625Z,10.02
2018-05-11T00:52:19.738Z,10.02
2018-05-11T00:52:23.950Z,10.02
2018-05-11T00:52:28.266Z,10.02
2018-05-11T00:52:32.600Z,10.02
2018-05-11T00:52:36.918Z,10.02
2018-05-11T00:52:40.908Z,10.02
2018-05-11T00:52:45.220Z,10.02
2018-05-11T00:52:49.329Z,10.03
2018-05-11T00:52:53.543Z,10.02
2018-05-11T00:52:57.755Z,10.02
2018-05-11T00:53:01.867Z,10.03
2018-05-11T00:53:05.969Z,10.02
2018-05-11T00:53:10.176Z,10.02
2018-05-11T00:53:14.394Z,10.02
2018-05-11T00:53:18.605Z,10.02
2018-05-11T00:53:22.596Z,10.02
2018-05-11T00:53:26.822Z,10.02
2018-05-11T00:53:31.153Z,10.02
2018-05-11T00:53:35.266Z,10.02
2018-05-11T00:53:39.468Z,10.02
2018-05-11T00:53:43.686Z,10.02
2018-05-11T00:53:47.999Z,10.03
2018-05-11T00:53:52.213Z,10.02
2018-05-11T00:53:56.535Z,10.03
2018-05-11T00:54:00.642Z,10.03
2018-05-11T00:54:04.749Z,10.03
2018-05-11T00:54:08.959Z,10.03
2018-05-11T00:54:13.170Z,10.03
2018-05-11T00:54:17.502Z,10.03
2018-05-11T00:54:21.711Z,10.03
2018-05-11T00:54:26.055Z,10.03
2018-05-11T00:54:30.162Z,10.03
2018-05-11T00:54:34.373Z,10.04
2018-05-11T00:54:38.698Z,10.04
2018-05-11T00:54:42.991Z,10.03
2018-05-11T00:54:47.315Z,10.04
2018-05-11T00:54:51.199Z,10.04
2018-05-11T00:54:55.595Z,10.04
2018-05-11T00:54:59.802Z,10.04
2018-05-11T00:55:03.949Z,10.04
2018-05-11T00:55:08.054Z,10.03
2018-05-11T00:55:12.152Z,10.04
2018-05-11T00:55:16.361Z,10.04
2018-05-11T00:55:20.573Z,10.04
2018-05-11T00:55:24.674Z,10.04
2018-05-11T00:55:28.669Z,10.05
2018-05-11T00:55:32.998Z,10.05
2018-05-11T00:55:37.009Z,10.05
2018-05-11T00:55:41.329Z,10.05
2018-05-11T00:55:45.428Z,10.05
2018-05-11T00:55:49.531Z,10.05
2018-05-11T00:55:53.744Z,10.05
2018-05-11T00:55:57.744Z,10.05
2018-05-11T00:56:01.956Z,10.05
2018-05-11T00:56:06.270Z,10.05
2018-05-11T00:56:10.480Z,10.05
2018-05-11T00:56:14.803Z,10.05
2018-05-11T00:56:18.796Z,10.05
2018-05-11T00:56:23.008Z,10.05
2018-05-11T00:56:27.218Z,10.05
2018-05-11T00:56:31.427Z,10.05
2018-05-11T00:56:35.529Z,10.06
2018-05-11T00:56:39.739Z,10.06
2018-05-11T00:56:43.960Z,10.05